Time;durP1;ratioP1;P1;durP2;ratioP2;P2;SDS_P1;SDS_P2;PMS_P1;PMS_P2;Temp;Humidity;BMP_temperature;BMP_pressure;BME280_temperature;BME280_humidity;BME280_pressure;Samples;Min_cycle;Max_cycle;Signal;HPM_P1;HPM_P2
2023/03/04 00:01:24;;;;;;;44.00;23.00;;;2.50;99.90;;;;;;5036368;28;20452;-63
2023/03/04 00:03:51;;;;;;;43.87;22.50;;;2.50;99.90;;;;;;5035742;28;20455;-62
2023/03/04 00:06:18;;;;;;;46.00;23.00;;;2.50;99.90;;;;;;5034843;28;20919;-63
2023/03/04 00:08:45;;;;;;;44.03;23.40;;;2.60;99.90;;;;;;5035401;28;20466;-63
2023/03/04 00:11:13;;;;;;;49.97;23.40;;;2.50;99.90;;;;;;5035341;28;20476;-63
2023/03/04 00:13:40;;;;;;;39.77;22.13;;;2.50;99.90;;;;;;5034980;28;20551;-63
2023/03/04 00:16:07;;;;;;;36.73;21.33;;;2.50;99.90;;;;;;5035081;28;20547;-64
2023/03/04 00:18:34;;;;;;;42.13;22.50;;;2.60;99.90;;;;;;5035333;28;20472;-63
2023/03/04 00:21:01;;;;;;;45.90;22.30;;;2.50;99.90;;;;;;5035017;28;20456;-63
2023/03/04 00:23:28;;;;;;;50.67;23.53;;;2.50;99.90;;;;;;5035341;28;20456;-64
2023/03/04 00:25:54;;;;;;;45.60;23.40;;;2.50;99.90;;;;;;5035361;28;20469;-63
2023/03/04 00:28:23;;;;;;;44.73;22.40;;;2.60;99.90;;;;;;5035381;28;20470;-64
2023/03/04 00:30:50;;;;;;;41.67;21.83;;;2.50;99.90;;;;;;5035483;28;20767;-64
2023/03/04 00:33:17;;;;;;;43.20;21.67;;;2.60;99.90;;;;;;5034766;28;20909;-61
2023/03/04 00:35:43;;;;;;;44.10;21.90;;;2.60;99.90;;;;;;5035113;28;20925;-62
2023/03/04 00:38:10;;;;;;;38.13;19.23;;;2.60;99.90;;;;;;5034678;28;20504;-63
2023/03/04 00:40:37;;;;;;;36.53;19.10;;;2.60;99.90;;;;;;5034656;28;20539;-62
2023/03/04 00:43:04;;;;;;;37.07;18.97;;;2.60;99.90;;;;;;5034430;28;20466;-64
2023/03/04 00:45:32;;;;;;;37.07;18.30;;;2.70;99.90;;;;;;5034808;28;20452;-63
2023/03/04 00:47:59;;;;;;;34.17;18.40;;;2.70;99.90;;;;;;5035158;28;20466;-63
2023/03/04 00:50:26;;;;;;;36.47;18.77;;;2.80;99.90;;;;;;5034828;28;20468;-63
2023/03/04 00:52:53;;;;;;;34.90;18.37;;;2.80;99.90;;;;;;5034670;28;20943;-63
2023/03/04 00:55:19;;;;;;;33.90;16.73;;;2.80;99.90;;;;;;5034732;28;20456;-63
2023/03/04 00:57:46;;;;;;;32.00;17.30;;;2.70;99.90;;;;;;5034424;28;20470;-63
2023/03/04 01:00:14;;;;;;;35.83;16.73;;;2.80;99.90;;;;;;5034685;28;20456;-63
2023/03/04 01:02:43;;;;;;;29.10;16.87;;;2.80;99.90;;;;;;5034764;28;20849;-63
2023/03/04 01:05:10;;;;;;;32.07;16.03;;;2.80;99.90;;;;;;5034834;28;20594;-64
2023/03/04 01:07:37;;;;;;;33.90;16.87;;;2.80;99.90;;;;;;5034650;28;20471;-64
2023/03/04 01:10:05;;;;;;;28.60;15.60;;;2.80;99.90;;;;;;5034600;28;20456;-63
2023/03/04 01:12:32;;;;;;;33.53;15.20;;;2.80;99.90;;;;;;5034715;28;20566;-63
2023/03/04 01:14:59;;;;;;;33.47;13.90;;;2.90;99.90;;;;;;5034388;28;20570;-63
2023/03/04 01:17:26;;;;;;;24.50;14.13;;;2.90;99.90;;;;;;5034548;28;20463;-65
2023/03/04 01:19:54;;;;;;;23.87;12.83;;;2.90;99.90;;;;;;5038611;28;20855;-63
2023/03/04 01:22:21;;;;;;;28.73;14.50;;;3.00;99.90;;;;;;5038528;28;20462;-64
2023/03/04 01:24:48;;;;;;;31.30;14.27;;;3.00;99.90;;;;;;5038160;28;20558;-64
2023/03/04 01:27:15;;;;;;;29.73;13.10;;;3.00;99.90;;;;;;5038374;28;20459;-62
2023/03/04 01:29:42;;;;;;;25.93;11.60;;;3.00;99.90;;;;;;5038048;28;20491;-63
2023/03/04 01:32:08;;;;;;;29.43;14.03;;;3.00;99.90;;;;;;5037906;28;20494;-64
2023/03/04 01:34:36;;;;;;;20.20;12.03;;;3.10;99.90;;;;;;5038315;28;20467;-63
2023/03/04 01:37:04;;;;;;;26.83;10.80;;;3.10;99.90;;;;;;5038345;28;20483;-63
2023/03/04 01:39:31;;;;;;;25.63;10.93;;;3.10;99.90;;;;;;5038981;28;20780;-67
2023/03/04 01:41:58;;;;;;;23.93;9.83;;;3.00;99.90;;;;;;5040475;28;20829;-63
2023/03/04 01:44:25;;;;;;;29.17;11.77;;;3.10;99.90;;;;;;5038311;28;20466;-63
2023/03/04 01:46:54;;;;;;;20.73;10.73;;;3.10;99.90;;;;;;5038387;28;20939;-63
2023/03/04 01:49:22;;;;;;;29.43;9.90;;;3.20;99.90;;;;;;5038420;28;20451;-63
2023/03/04 01:51:52;;;;;;;22.10;10.80;;;3.20;99.90;;;;;;5038241;28;20567;-63
2023/03/04 01:54:21;;;;;;;31.10;9.90;;;3.20;99.90;;;;;;5038089;28;20455;-63
2023/03/04 01:56:50;;;;;;;27.63;10.20;;;3.30;99.90;;;;;;5038334;28;20775;-63
2023/03/04 01:59:19;;;;;;;22.40;9.30;;;3.30;99.90;;;;;;5038282;28;20470;-63
2023/03/04 02:01:49;;;;;;;20.83;9.60;;;3.30;99.90;;;;;;5037673;28;20456;-62
2023/03/04 02:04:17;;;;;;;22.33;11.00;;;3.30;99.90;;;;;;5037589;28;20905;-62
2023/03/04 02:06:46;;;;;;;14.63;8.80;;;3.30;99.90;;;;;;5037664;28;20456;-63
2023/03/04 02:09:13;;;;;;;18.30;9.03;;;3.40;99.90;;;;;;5037856;28;20464;-62
2023/03/04 02:11:42;;;;;;;28.77;9.80;;;3.40;99.90;;;;;;5037594;28;20480;-64
2023/03/04 02:14:11;;;;;;;30.90;9.37;;;3.50;99.90;;;;;;5037425;28;20483;-63
2023/03/04 02:16:38;;;;;;;18.77;8.90;;;3.50;99.90;;;;;;5037837;28;20775;-62
2023/03/04 02:19:06;;;;;;;19.60;8.43;;;3.50;99.90;;;;;;5037327;28;20543;-63
2023/03/04 02:21:34;;;;;;;20.07;8.60;;;3.50;99.90;;;;;;5037635;28;20458;-63
2023/03/04 02:24:14;;;;;;;23.20;8.80;;;3.50;99.90;;;;;;5037615;28;20460;-63
2023/03/04 02:26:42;;;;;;;19.13;8.47;;;3.60;99.90;;;;;;5037868;28;20455;-63
2023/03/04 02:29:11;;;;;;;25.60;8.70;;;3.60;99.90;;;;;;5037250;28;20452;-63
2023/03/04 02:31:39;;;;;;;25.57;7.83;;;3.70;99.90;;;;;;5037469;28;20782;-61
2023/03/04 02:34:11;;;;;;;21.10;8.60;;;3.60;99.90;;;;;;5037393;28;20456;-62
2023/03/04 02:36:38;;;;;;;26.93;7.83;;;3.70;99.90;;;;;;5037840;28;20453;-62
2023/03/04 02:39:10;;;;;;;17.63;8.10;;;3.70;99.90;;;;;;5037692;28;20452;-61
2023/03/04 02:41:37;;;;;;;21.23;7.80;;;3.80;99.90;;;;;;5038026;28;20535;-63
2023/03/04 02:44:17;;;;;;;22.63;8.60;;;3.80;99.90;;;;;;5037376;28;20460;-63
2023/03/04 02:46:44;;;;;;;25.80;7.97;;;3.80;99.90;;;;;;5037979;28;20455;-62
2023/03/04 02:49:11;;;;;;;18.40;7.50;;;3.80;99.90;;;;;;5037924;28;20537;-62
2023/03/04 02:51:38;;;;;;;16.27;7.60;;;3.80;99.90;;;;;;5037885;28;20490;-64
2023/03/04 02:54:14;;;;;;;15.03;7.43;;;3.80;99.90;;;;;;5037643;28;20453;-62
2023/03/04 02:56:45;;;;;;;22.23;8.20;;;3.90;99.90;;;;;;5037268;28;20872;-63
2023/03/04 02:59:13;;;;;;;14.30;7.40;;;3.90;99.90;;;;;;5037128;28;20457;-61
2023/03/04 03:01:40;;;;;;;18.87;7.80;;;3.90;99.90;;;;;;5038387;28;20453;-62
2023/03/04 03:04:07;;;;;;;18.47;7.50;;;3.90;99.90;;;;;;5039378;28;20459;-63
2023/03/04 03:06:34;;;;;;;19.10;7.93;;;3.90;99.90;;;;;;5039187;28;20956;-63
2023/03/04 03:09:01;;;;;;;20.80;7.03;;;3.90;99.90;;;;;;5038580;28;20913;-64
2023/03/04 03:11:27;;;;;;;13.87;7.43;;;3.90;99.90;;;;;;5040253;28;20552;-63
2023/03/04 03:13:54;;;;;;;17.10;8.20;;;3.90;99.90;;;;;;5040030;28;20459;-63
2023/03/04 03:16:23;;;;;;;19.23;7.80;;;3.90;99.90;;;;;;5039780;28;20456;-63
2023/03/04 03:18:50;;;;;;;14.17;7.13;;;4.00;99.90;;;;;;5039637;28;20452;-62
2023/03/04 03:21:17;;;;;;;17.63;7.87;;;4.00;99.90;;;;;;5039518;28;20543;-63
2023/03/04 03:23:43;;;;;;;17.50;7.27;;;4.00;99.90;;;;;;5039375;28;20843;-63
2023/03/04 03:26:10;;;;;;;26.23;7.70;;;4.00;99.90;;;;;;5037973;28;20542;-63
2023/03/04 03:28:37;;;;;;;15.77;6.00;;;4.00;99.90;;;;;;5035761;28;20460;-63
2023/03/04 03:31:04;;;;;;;15.30;5.70;;;4.10;99.90;;;;;;5036039;28;20456;-63
2023/03/04 03:33:33;;;;;;;20.17;6.87;;;4.00;99.90;;;;;;5035864;28;20933;-63
2023/03/04 03:35:59;;;;;;;17.20;7.70;;;4.00;99.90;;;;;;5035763;28;20471;-63
2023/03/04 03:38:27;;;;;;;14.90;6.67;;;4.10;99.90;;;;;;5035859;28;20466;-63
2023/03/04 03:40:54;;;;;;;17.10;6.30;;;4.10;99.90;;;;;;5035067;28;20500;-63
2023/03/04 03:43:21;;;;;;;13.67;6.40;;;4.10;99.90;;;;;;5035610;28;20912;-63
2023/03/04 03:45:48;;;;;;;17.13;6.80;;;4.10;99.90;;;;;;5035638;28;20928;-63
2023/03/04 03:48:15;;;;;;;14.50;7.37;;;4.00;99.90;;;;;;5035809;28;20935;-63
2023/03/04 03:50:43;;;;;;;12.50;6.17;;;4.00;99.90;;;;;;5035460;28;20984;-63
2023/03/04 03:53:10;;;;;;;17.57;6.17;;;4.10;99.90;;;;;;5035707;28;20831;-63
2023/03/04 03:55:37;;;;;;;20.23;6.33;;;4.20;99.90;;;;;;5035563;28;20803;-63
2023/03/04 03:58:04;;;;;;;12.07;5.53;;;4.20;99.90;;;;;;5035307;28;20916;-63
2023/03/04 04:00:31;;;;;;;14.70;6.60;;;4.10;99.90;;;;;;5035423;28;20452;-63
2023/03/04 04:02:59;;;;;;;17.40;6.37;;;4.10;99.90;;;;;;5035446;28;20547;-64
2023/03/04 04:05:26;;;;;;;15.00;5.60;;;4.10;99.90;;;;;;5035483;28;20455;-63
2023/03/04 04:07:55;;;;;;;13.00;5.53;;;4.20;99.90;;;;;;5035445;28;20558;-63
2023/03/04 04:10:22;;;;;;;18.13;5.37;;;4.20;99.90;;;;;;5035219;28;20984;-63
2023/03/04 04:12:48;;;;;;;18.20;6.50;;;4.30;99.90;;;;;;5035106;28;20486;-63
2023/03/04 04:15:15;;;;;;;19.10;5.70;;;4.20;99.90;;;;;;5034834;28;20977;-63
2023/03/04 04:17:42;;;;;;;22.67;6.00;;;4.30;99.90;;;;;;5035503;28;20460;-63
2023/03/04 04:20:10;;;;;;;15.40;5.57;;;4.30;99.90;;;;;;5035548;28;20514;-63
2023/03/04 04:22:37;;;;;;;13.27;6.63;;;4.30;99.90;;;;;;5035024;28;20460;-63
2023/03/04 04:25:09;;;;;;;15.87;5.37;;;4.30;99.90;;;;;;5035507;28;21079;-63
2023/03/04 04:27:36;;;;;;;24.43;6.83;;;4.30;99.90;;;;;;5036618;28;20456;-62
2023/03/04 04:30:03;;;;;;;14.20;5.80;;;4.40;99.90;;;;;;5036949;28;20559;-63
2023/03/04 04:32:30;;;;;;;12.70;5.97;;;4.40;99.90;;;;;;5036329;28;20567;-62
2023/03/04 04:34:57;;;;;;;13.97;4.67;;;4.30;99.90;;;;;;5035873;28;20538;-62
2023/03/04 04:37:23;;;;;;;17.87;5.53;;;4.30;99.90;;;;;;5035962;28;20525;-62
2023/03/04 04:39:54;;;;;;;12.33;5.20;;;4.40;99.90;;;;;;5035844;28;20843;-63
2023/03/04 04:42:22;;;;;;;12.77;4.90;;;4.40;99.90;;;;;;5035816;28;20467;-63
2023/03/04 04:44:50;;;;;;;8.00;3.90;;;4.40;99.90;;;;;;5035616;28;20530;-62
2023/03/04 04:47:17;;;;;;;12.50;5.37;;;4.50;99.90;;;;;;5035607;28;20463;-63
2023/03/04 04:49:44;;;;;;;13.07;4.90;;;4.50;99.90;;;;;;5036085;28;20491;-63
2023/03/04 04:52:11;;;;;;;14.10;5.03;;;4.50;99.90;;;;;;5034894;28;20476;-63
2023/03/04 04:54:37;;;;;;;10.70;4.33;;;4.60;99.90;;;;;;5036387;28;20456;-63
2023/03/04 04:57:04;;;;;;;12.40;4.90;;;4.60;99.90;;;;;;5037173;28;20556;-63
2023/03/04 04:59:32;;;;;;;11.73;5.60;;;4.60;99.90;;;;;;5038512;28;20456;-63
2023/03/04 05:01:59;;;;;;;11.70;4.03;;;4.60;99.90;;;;;;5036270;28;20780;-63
2023/03/04 05:04:26;;;;;;;15.33;4.00;;;4.70;99.90;;;;;;5035522;28;20526;-63
2023/03/04 05:06:53;;;;;;;16.53;4.70;;;4.70;99.90;;;;;;5036159;28;20491;-64
2023/03/04 05:09:21;;;;;;;15.80;4.13;;;4.70;99.90;;;;;;5035995;28;20491;-63
2023/03/04 05:11:48;;;;;;;13.80;4.40;;;4.80;99.90;;;;;;5035759;28;20467;-63
2023/03/04 05:14:15;;;;;;;14.00;3.80;;;4.80;99.90;;;;;;5035362;28;20924;-63
2023/03/04 05:16:43;;;;;;;16.13;5.13;;;4.80;99.90;;;;;;5035811;28;20440;-63
2023/03/04 05:19:10;;;;;;;9.10;3.83;;;4.80;99.90;;;;;;5036100;28;20470;-63
2023/03/04 05:21:37;;;;;;;8.03;3.70;;;4.80;99.90;;;;;;5035514;28;20456;-63
2023/03/04 05:24:04;;;;;;;9.63;4.43;;;4.80;99.90;;;;;;5035338;28;20554;-63
2023/03/04 05:26:31;;;;;;;11.90;3.83;;;4.90;99.90;;;;;;5035184;28;20539;-63
2023/03/04 05:28:58;;;;;;;9.40;3.03;;;4.80;99.90;;;;;;5034722;28;20522;-63
2023/03/04 05:31:25;;;;;;;16.30;4.27;;;4.80;99.90;;;;;;5035418;28;20467;-63
2023/03/04 05:33:53;;;;;;;14.10;3.40;;;4.80;99.90;;;;;;5035237;28;20955;-63
2023/03/04 05:36:20;;;;;;;9.80;3.53;;;4.80;99.90;;;;;;5034629;28;20459;-63
2023/03/04 05:38:47;;;;;;;13.83;3.40;;;4.80;99.90;;;;;;5034991;28;20984;-63
2023/03/04 05:41:14;;;;;;;13.97;3.73;;;4.90;99.90;;;;;;5034571;28;20466;-63
2023/03/04 05:43:42;;;;;;;7.63;3.20;;;4.90;99.90;;;;;;5035178;28;20554;-63
2023/03/04 05:46:12;;;;;;;9.83;3.67;;;4.90;99.90;;;;;;5034829;28;20889;-63
2023/03/04 05:48:38;;;;;;;7.73;3.37;;;4.90;99.90;;;;;;5034353;28;20542;-63
2023/03/04 05:51:07;;;;;;;7.23;3.37;;;4.90;99.90;;;;;;5034796;28;20551;-63
2023/03/04 05:53:35;;;;;;;8.10;3.63;;;4.90;99.90;;;;;;5034597;28;20667;-63
2023/03/04 05:56:07;;;;;;;12.93;3.80;;;4.90;99.90;;;;;;5034456;28;20456;-63
2023/03/04 05:58:34;;;;;;;5.77;3.70;;;4.80;99.90;;;;;;5035295;28;20849;-64
2023/03/04 06:01:01;;;;;;;8.10;3.07;;;4.80;99.90;;;;;;5034237;28;20488;-61
2023/03/04 06:03:28;;;;;;;9.40;3.47;;;4.90;99.90;;;;;;5034833;28;20793;-63
2023/03/04 06:05:55;;;;;;;9.67;3.27;;;4.80;99.90;;;;;;5037878;28;20539;-63
2023/03/04 06:08:23;;;;;;;6.13;3.90;;;4.70;99.90;;;;;;5037788;28;20456;-63
2023/03/04 06:10:53;;;;;;;8.20;3.70;;;4.80;99.90;;;;;;5037880;28;20469;-62
2023/03/04 06:13:20;;;;;;;17.53;3.70;;;4.80;99.90;;;;;;5037928;28;20480;-63
2023/03/04 06:15:47;;;;;;;9.33;3.27;;;4.80;99.90;;;;;;5037274;28;20480;-63
2023/03/04 06:18:14;;;;;;;13.77;3.90;;;4.80;99.90;;;;;;5037817;28;20466;-64
2023/03/04 06:20:41;;;;;;;9.17;3.63;;;4.70;99.90;;;;;;5037567;28;20456;-63
2023/03/04 06:23:07;;;;;;;10.00;4.13;;;4.70;99.90;;;;;;5037573;28;20555;-63
2023/03/04 06:25:36;;;;;;;10.93;3.37;;;4.70;99.90;;;;;;5037233;28;20925;-63
2023/03/04 06:28:03;;;;;;;7.20;3.23;;;4.70;99.90;;;;;;5037486;28;20553;-63
2023/03/04 06:30:29;;;;;;;8.23;3.57;;;4.80;99.90;;;;;;5037251;28;20463;-63
2023/03/04 06:32:57;;;;;;;11.87;3.50;;;4.70;99.90;;;;;;5037091;28;20490;-63
2023/03/04 06:35:24;;;;;;;9.23;3.70;;;4.70;99.90;;;;;;5037593;28;20452;-65
2023/03/04 06:37:50;;;;;;;14.57;3.73;;;4.60;99.90;;;;;;5037500;28;20483;-65
2023/03/04 06:40:17;;;;;;;10.60;3.67;;;4.50;99.90;;;;;;5037360;28;20543;-63
2023/03/04 06:42:46;;;;;;;10.00;3.80;;;4.50;99.90;;;;;;5037046;28;20456;-63
2023/03/04 06:45:12;;;;;;;6.00;2.80;;;4.50;99.90;;;;;;5037434;28;20558;-63
2023/03/04 06:47:40;;;;;;;8.57;3.53;;;4.50;99.90;;;;;;5037748;28;20558;-65
2023/03/04 06:50:07;;;;;;;8.53;4.47;;;4.50;99.90;;;;;;5037677;28;20539;-64
2023/03/04 06:52:34;;;;;;;6.33;3.40;;;4.40;99.90;;;;;;5037564;28;20517;-63
2023/03/04 06:55:01;;;;;;;10.87;5.00;;;4.40;99.90;;;;;;5037310;28;20471;-64
2023/03/04 06:57:28;;;;;;;10.63;3.50;;;4.40;99.90;;;;;;5037680;28;20468;-63
2023/03/04 06:59:56;;;;;;;11.10;4.10;;;4.40;99.90;;;;;;5037420;28;20470;-64
2023/03/04 07:02:23;;;;;;;9.00;3.97;;;4.50;99.90;;;;;;5036574;28;20466;-63
2023/03/04 07:04:50;;;;;;;15.23;3.93;;;4.50;99.90;;;;;;5036793;28;20466;-63
2023/03/04 07:07:17;;;;;;;14.63;3.80;;;4.50;99.90;;;;;;5037146;28;20553;-63
2023/03/04 07:09:44;;;;;;;12.67;3.70;;;4.40;99.90;;;;;;5036337;28;20521;-62
2023/03/04 07:12:11;;;;;;;9.40;3.40;;;4.50;99.90;;;;;;5036611;28;20460;-63
2023/03/04 07:14:38;;;;;;;9.83;3.47;;;4.50;99.90;;;;;;5036008;28;20506;-63
2023/03/04 07:17:06;;;;;;;12.10;3.73;;;4.50;99.90;;;;;;5035953;28;20470;-64
2023/03/04 07:19:33;;;;;;;6.43;2.53;;;4.50;99.90;;;;;;5036769;28;20546;-64
2023/03/04 07:22:00;;;;;;;8.07;3.20;;;4.50;99.90;;;;;;5036615;28;20551;-63
2023/03/04 07:24:26;;;;;;;10.23;3.90;;;4.50;99.90;;;;;;5036584;28;20520;-64
2023/03/04 07:26:53;;;;;;;6.43;3.00;;;4.50;99.90;;;;;;5036416;28;20543;-63
2023/03/04 07:29:20;;;;;;;9.77;3.67;;;4.50;99.90;;;;;;5036333;28;20798;-63
2023/03/04 07:31:47;;;;;;;7.50;3.10;;;4.50;99.90;;;;;;5035983;28;20470;-64
2023/03/04 07:34:15;;;;;;;9.17;4.17;;;4.60;99.90;;;;;;5035840;28;20957;-63
2023/03/04 07:36:42;;;;;;;9.13;3.27;;;4.50;99.90;;;;;;5036252;28;20543;-63
2023/03/04 07:39:12;;;;;;;12.83;3.57;;;4.50;99.90;;;;;;5036087;28;21004;-64
2023/03/04 07:41:40;;;;;;;7.27;3.90;;;4.50;99.90;;;;;;5036036;28;20790;-63
2023/03/04 07:44:08;;;;;;;9.10;3.43;;;4.50;99.90;;;;;;5036216;28;20852;-64
2023/03/04 07:46:35;;;;;;;7.50;3.47;;;4.50;99.90;;;;;;5035698;28;20466;-64
2023/03/04 07:49:02;;;;;;;14.07;3.50;;;4.60;99.90;;;;;;5035897;28;20909;-64
2023/03/04 07:51:30;;;;;;;5.67;2.97;;;4.60;99.90;;;;;;5035826;28;20808;-64
2023/03/04 07:54:00;;;;;;;7.27;3.07;;;4.60;99.90;;;;;;5035873;28;20511;-64
2023/03/04 07:56:29;;;;;;;6.77;2.73;;;4.60;99.90;;;;;;5035360;28;20909;-63
2023/03/04 07:58:55;;;;;;;7.23;3.80;;;4.60;99.90;;;;;;5035661;28;20471;-63
2023/03/04 08:01:24;;;;;;;8.57;3.60;;;4.60;99.90;;;;;;5035338;28;20550;-64
2023/03/04 08:03:51;;;;;;;8.97;3.20;;;4.70;99.90;;;;;;5035499;28;20456;-63
2023/03/04 08:06:19;;;;;;;16.10;4.73;;;4.70;99.90;;;;;;5035806;28;20452;-63
2023/03/04 08:08:49;;;;;;;6.43;4.03;;;4.70;99.90;;;;;;5053455;28;20461;-64
2023/03/04 08:11:17;;;;;;;7.17;2.90;;;4.70;99.90;;;;;;5055706;28;20455;-63
2023/03/04 08:13:44;;;;;;;9.63;3.53;;;4.80;99.90;;;;;;5055095;28;20489;-63
2023/03/04 08:16:14;;;;;;;6.80;2.80;;;4.70;99.90;;;;;;5055049;28;20594;-64
2023/03/04 08:18:42;;;;;;;11.30;3.27;;;4.70;99.90;;;;;;5053585;28;20455;-64
2023/03/04 08:21:12;;;;;;;4.93;3.07;;;4.80;99.90;;;;;;5054847;28;20459;-65
2023/03/04 08:23:41;;;;;;;9.03;3.57;;;4.80;99.90;;;;;;5055267;28;20483;-64
2023/03/04 08:26:12;;;;;;;9.50;3.20;;;4.80;99.90;;;;;;5054678;28;20459;-63
2023/03/04 08:28:39;;;;;;;5.93;3.03;;;4.80;99.90;;;;;;5039608;28;20452;-64
2023/03/04 08:31:06;;;;;;;6.73;3.40;;;4.90;99.90;;;;;;5034884;28;20456;-64
2023/03/04 08:33:34;;;;;;;8.77;3.17;;;4.90;99.90;;;;;;5034961;28;20511;-64
2023/03/04 08:36:01;;;;;;;5.50;2.87;;;4.90;99.90;;;;;;5035267;28;20864;-63
2023/03/04 08:38:28;;;;;;;10.33;2.90;;;4.90;99.90;;;;;;5035376;28;20476;-63
2023/03/04 08:40:56;;;;;;;6.77;3.27;;;4.90;99.90;;;;;;5035177;28;20916;-64
2023/03/04 08:43:26;;;;;;;8.10;3.07;;;4.90;99.90;;;;;;5034918;28;20547;-65
2023/03/04 08:45:53;;;;;;;6.30;2.70;;;5.00;99.90;;;;;;5035540;28;20788;-63
2023/03/04 08:48:21;;;;;;;7.50;2.17;;;5.00;99.90;;;;;;5035276;28;20456;-64
2023/03/04 08:50:49;;;;;;;11.53;2.90;;;5.10;99.90;;;;;;5034760;28;20460;-63
2023/03/04 08:53:16;;;;;;;4.73;2.40;;;5.10;99.90;;;;;;5034776;28;20575;-65
2023/03/04 08:55:44;;;;;;;4.60;2.30;;;5.20;99.90;;;;;;5035203;28;20456;-64
2023/03/04 08:58:11;;;;;;;7.50;2.70;;;5.30;99.90;;;;;;5034738;28;20455;-64
2023/03/04 09:00:42;;;;;;;7.33;2.50;;;5.30;99.90;;;;;;5035030;28;20987;-67
2023/03/04 09:03:11;;;;;;;7.03;2.40;;;5.40;99.90;;;;;;5034822;28;20441;-66
2023/03/04 09:05:38;;;;;;;6.93;2.70;;;5.40;99.90;;;;;;5034379;28;20963;-67
2023/03/04 09:08:06;;;;;;;11.20;3.00;;;5.50;99.90;;;;;;5034833;28;20521;-66
2023/03/04 09:10:33;;;;;;;7.00;3.67;;;5.60;99.90;;;;;;5034750;28;20456;-66
2023/03/04 09:13:00;;;;;;;6.10;2.00;;;5.60;99.90;;;;;;5034560;28;20470;-66
2023/03/04 09:15:27;;;;;;;8.27;2.20;;;5.60;99.90;;;;;;5034313;28;20835;-66
2023/03/04 09:17:56;;;;;;;6.23;2.20;;;5.70;99.90;;;;;;5034437;28;20925;-65
2023/03/04 09:20:22;;;;;;;5.10;2.10;;;5.70;99.90;;;;;;5034243;28;20882;-66
2023/03/04 09:22:50;;;;;;;8.17;1.93;;;5.80;99.90;;;;;;5034658;28;20809;-66
2023/03/04 09:25:16;;;;;;;4.13;2.30;;;5.90;99.90;;;;;;5034470;28;20470;-71
2023/03/04 09:27:43;;;;;;;5.87;2.30;;;5.90;99.90;;;;;;5034217;28;20470;-66
2023/03/04 09:30:11;;;;;;;9.53;2.27;;;5.90;99.90;;;;;;5034499;28;20465;-65
2023/03/04 09:32:39;;;;;;;9.97;2.30;;;6.00;99.90;;;;;;5034082;28;20466;-65
2023/03/04 09:35:08;;;;;;;6.40;2.47;;;6.00;99.90;;;;;;5034370;28;20476;-64
2023/03/04 09:37:36;;;;;;;6.13;2.00;;;6.00;99.90;;;;;;5034421;28;20554;-65
2023/03/04 09:40:03;;;;;;;5.47;2.23;;;6.00;99.90;;;;;;5037054;28;20555;-65
2023/03/04 09:42:35;;;;;;;12.87;3.00;;;6.00;99.90;;;;;;5038353;28;20463;-65
2023/03/04 09:45:05;;;;;;;5.17;2.07;;;6.10;99.90;;;;;;5037749;28;20535;-65
2023/03/04 09:47:35;;;;;;;9.27;2.87;;;6.10;99.90;;;;;;5038298;28;20462;-65
2023/03/04 09:50:06;;;;;;;6.53;2.43;;;6.00;99.90;;;;;;5037919;28;20980;-65
2023/03/04 09:52:48;;;;;;;7.40;2.30;;;6.10;99.90;;;;;;5037862;28;20968;-65
2023/03/04 09:55:24;;;;;;;6.60;2.47;;;6.10;99.90;;;;;;5037779;28;20469;-65
2023/03/04 09:57:53;;;;;;;12.77;2.80;;;6.10;99.90;;;;;;5037732;28;20455;-65
2023/03/04 10:00:24;;;;;;;12.03;2.40;;;6.10;99.90;;;;;;5037895;28;20495;-66
2023/03/04 10:03:10;;;;;;;12.80;2.60;;;6.20;99.90;;;;;;5037882;28;20829;-65
2023/03/04 10:05:42;;;;;;;8.60;2.93;;;6.30;99.90;;;;;;5037723;28;20531;-65
2023/03/04 10:08:27;;;;;;;5.70;2.50;;;6.40;99.90;;;;;;5037966;28;20445;-65
2023/03/04 10:10:56;;;;;;;6.23;2.53;;;6.40;99.90;;;;;;5037915;28;20447;-65
2023/03/04 10:13:31;;;;;;;6.73;2.23;;;6.50;99.90;;;;;;5037567;28;20578;-64
2023/03/04 10:16:00;;;;;;;9.50;2.23;;;6.50;99.90;;;;;;5037336;28;20901;-65
2023/03/04 10:18:31;;;;;;;6.40;1.70;;;6.60;99.90;;;;;;5037604;28;20470;-65
2023/03/04 10:21:02;;;;;;;6.70;2.13;;;6.60;99.90;;;;;;5037346;28;20462;-65
2023/03/04 10:23:31;;;;;;;7.60;2.10;;;6.50;99.90;;;;;;5037493;28;20873;-65
2023/03/04 10:26:01;;;;;;;4.57;2.17;;;6.50;99.90;;;;;;5036934;28;20460;-65
2023/03/04 10:28:30;;;;;;;10.00;2.90;;;6.60;99.90;;;;;;5037744;28;20458;-66
2023/03/04 10:31:01;;;;;;;6.70;2.27;;;6.60;99.90;;;;;;5037482;28;20873;-65
2023/03/04 10:33:33;;;;;;;10.77;2.87;;;6.50;99.90;;;;;;5037854;28;20836;-65
2023/03/04 10:36:02;;;;;;;8.17;2.70;;;6.50;99.90;;;;;;5037800;28;20939;-66
2023/03/04 10:38:33;;;;;;;5.90;2.40;;;6.50;99.90;;;;;;5037592;28;20850;-65
2023/03/04 10:41:00;;;;;;;14.50;3.00;;;6.50;99.90;;;;;;5037593;28;20448;-66
2023/03/04 10:43:27;;;;;;;12.43;3.30;;;6.60;99.90;;;;;;5037187;28;20470;-65
2023/03/04 10:46:00;;;;;;;7.90;2.90;;;6.80;99.90;;;;;;5037469;28;20470;-66
2023/03/04 10:48:29;;;;;;;5.80;2.33;;;6.80;99.90;;;;;;5037405;28;20467;-64
2023/03/04 10:51:13;;;;;;;8.10;2.80;;;6.90;99.90;;;;;;5037439;28;20522;-65
2023/03/04 10:53:43;;;;;;;7.67;1.83;;;6.80;99.90;;;;;;5036856;28;20959;-66
2023/03/04 10:56:35;;;;;;;10.53;2.90;;;6.80;99.90;;;;;;5037193;28;20498;-65
2023/03/04 10:59:34;;;;;;;8.70;2.63;;;6.70;99.90;;;;;;5036637;28;20463;-65
2023/03/04 11:02:10;;;;;;;15.10;3.97;;;6.60;99.90;;;;;;5037164;28;20950;-66
2023/03/04 11:04:37;;;;;;;8.77;3.00;;;6.60;99.90;;;;;;5036942;28;20446;-65
2023/03/04 11:07:08;;;;;;;9.43;3.23;;;6.50;99.90;;;;;;5036748;28;20456;-64
2023/03/04 11:09:39;;;;;;;9.93;2.57;;;6.50;99.90;;;;;;5037536;28;20506;-65
2023/03/04 11:12:10;;;;;;;12.63;3.30;;;6.50;99.90;;;;;;5037030;28;20456;-65
2023/03/04 11:14:42;;;;;;;10.20;2.50;;;6.50;99.90;;;;;;5036925;28;20633;-65
2023/03/04 11:17:22;;;;;;;15.20;3.73;;;6.60;99.90;;;;;;5037619;28;20440;-64
2023/03/04 11:19:54;;;;;;;15.20;2.97;;;6.70;99.90;;;;;;5037809;28;20468;-66
2023/03/04 11:22:23;;;;;;;10.47;4.23;;;6.70;99.90;;;;;;5037314;28;20444;-65
2023/03/04 11:24:58;;;;;;;13.30;3.87;;;6.70;99.90;;;;;;5036677;28;20452;-65
2023/03/04 11:27:34;;;;;;;9.00;2.93;;;6.70;99.90;;;;;;5037229;28;20481;-65
2023/03/04 11:30:16;;;;;;;8.23;2.77;;;6.80;99.90;;;;;;5037152;28;20451;-66
2023/03/04 11:32:48;;;;;;;16.40;3.23;;;6.90;99.90;;;;;;5037198;28;20603;-65
2023/03/04 11:35:23;;;;;;;16.23;2.83;;;6.80;99.90;;;;;;5037627;28;20937;-65
2023/03/04 11:37:58;;;;;;;11.03;2.40;;;6.90;99.90;;;;;;5037467;28;20871;-64
2023/03/04 11:40:33;;;;;;;17.80;3.20;;;7.00;99.90;;;;;;5036984;28;20440;-65
2023/03/04 11:43:06;;;;;;;12.00;2.90;;;7.00;99.90;;;;;;5037487;28;20448;-64
2023/03/04 11:45:51;;;;;;;12.07;3.70;;;7.00;99.90;;;;;;5037787;28;20447;-65
2023/03/04 11:48:29;;;;;;;13.07;3.00;;;7.00;99.90;;;;;;5037141;28;20517;-65
2023/03/04 11:51:04;;;;;;;9.87;3.93;;;7.00;99.90;;;;;;5037314;28;20440;-65
2023/03/04 11:53:42;;;;;;;10.77;2.70;;;6.90;99.90;;;;;;5038205;28;20509;-65
2023/03/04 11:56:32;;;;;;;13.87;4.20;;;6.90;99.90;;;;;;5037493;28;20436;-66
2023/03/04 11:59:33;;;;;;;14.90;3.20;;;6.90;99.90;;;;;;5037442;28;20440;-65
2023/03/04 12:02:13;;;;;;;14.40;3.07;;;6.90;99.90;;;;;;5010079;28;20452;-66
2023/03/04 12:05:19;;;;;;;18.67;3.20;;;6.80;99.90;;;;;;5036376;28;20448;-66
2023/03/04 12:08:13;;;;;;;12.87;3.30;;;6.80;99.90;;;;;;5035782;28;20440;-66
2023/03/04 12:10:46;;;;;;;21.93;3.03;;;6.60;99.90;;;;;;5035723;28;20450;-65
2023/03/04 12:13:35;;;;;;;8.30;2.93;;;6.60;99.90;;;;;;5035558;28;20440;-65
2023/03/04 12:16:16;;;;;;;25.33;3.80;;;6.60;99.90;;;;;;5035244;28;20551;-65
2023/03/04 12:18:59;;;;;;;8.80;2.97;;;6.60;99.90;;;;;;5036510;28;20483;-65
2023/03/04 12:21:47;;;;;;;10.63;3.23;;;6.70;99.90;;;;;;5035550;28;20444;-66
2023/03/04 12:24:42;;;;;;;17.50;5.43;;;6.60;99.90;;;;;;5035465;28;20777;-65
2023/03/04 12:27:20;;;;;;;12.50;3.30;;;6.70;99.90;;;;;;5001551;28;20463;-66
2023/03/04 12:29:56;;;;;;;13.90;3.40;;;6.80;99.90;;;;;;5035103;28;20960;-66
2023/03/04 12:32:31;;;;;;;11.50;3.43;;;6.90;99.90;;;;;;5035460;28;20783;-66
2023/03/04 12:35:18;;;;;;;14.13;3.30;;;7.00;99.90;;;;;;5035297;28;20955;-65
2023/03/04 12:38:04;;;;;;;12.97;3.43;;;6.90;99.90;;;;;;5035139;28;20448;-66
2023/03/04 12:40:38;;;;;;;10.60;3.07;;;6.90;99.90;;;;;;5035411;28;20451;-64
2023/03/04 12:43:40;;;;;;;15.90;3.27;;;6.90;99.90;;;;;;5035383;28;20444;-65
2023/03/04 12:46:17;;;;;;;10.73;2.50;;;6.90;99.90;;;;;;4955268;29;20447;-66
2023/03/04 12:48:54;;;;;;;10.80;3.63;;;6.90;99.90;;;;;;5022397;28;20917;-65
2023/03/04 12:51:32;;;;;;;5.17;2.17;;;6.90;99.90;;;;;;5035086;28;20541;-66
2023/03/04 12:54:13;;;;;;;7.03;2.83;;;6.90;99.90;;;;;;5034491;28;20520;-65
2023/03/04 12:56:47;;;;;;;10.27;2.77;;;6.90;99.90;;;;;;5035200;28;20775;-65
2023/03/04 12:59:17;;;;;;;6.90;2.10;;;6.80;99.90;;;;;;5034967;28;20471;-65
2023/03/04 13:01:53;;;;;;;12.00;2.77;;;6.80;99.90;;;;;;5034898;28;20456;-65